createdAt,value
2022-10-23T00:01:45.549Z,13.65
2022-10-23T00:04:16.587Z,10.18
2022-10-23T00:06:43.404Z,10.77
2022-10-23T00:09:12.653Z,13.02
2022-10-23T00:11:39.055Z,13.30
2022-10-23T00:14:06.883Z,8.45
2022-10-23T00:16:33.672Z,10.32
2022-10-23T00:19:00.052Z,8.38
2022-10-23T00:21:26.745Z,6.00
2022-10-23T00:23:53.280Z,13.23
2022-10-23T00:26:19.736Z,11.82
2022-10-23T00:28:53.290Z,10.82
2022-10-23T00:31:20.375Z,9.80
2022-10-23T00:33:46.945Z,8.32
2022-10-23T00:36:14.780Z,9.95
2022-10-23T00:38:43.418Z,9.15
2022-10-23T00:41:10.178Z,13.77
2022-10-23T00:43:54.187Z,14.63
2022-10-23T00:46:20.648Z,11.18
2022-10-23T00:48:47.215Z,12.10
2022-10-23T00:51:13.659Z,8.43
2022-10-23T00:53:40.032Z,9.27
2022-10-23T00:56:06.718Z,7.68
2022-10-23T00:58:33.106Z,10.05
2022-10-23T01:00:59.540Z,7.43
2022-10-23T01:03:28.069Z,12.65
2022-10-23T01:06:00.274Z,6.32
2022-10-23T01:08:29.754Z,7.55
2022-10-23T01:11:07.246Z,8.75
2022-10-23T01:13:42.120Z,13.05
2022-10-23T01:16:15.350Z,11.05
2022-10-23T01:18:45.564Z,10.27
2022-10-23T01:21:30.738Z,9.48
2022-10-23T01:24:09.395Z,9.40
2022-10-23T01:26:54.115Z,8.80
2022-10-23T01:29:24.608Z,9.88
2022-10-23T01:31:58.012Z,11.77
2022-10-23T01:34:30.249Z,11.35
2022-10-23T01:36:58.075Z,10.32
2022-10-23T01:39:27.490Z,7.15
2022-10-23T01:41:59.763Z,9.98
2022-10-23T01:44:42.667Z,8.70
2022-10-23T01:47:10.528Z,7.95
2022-10-23T01:49:51.721Z,8.48
2022-10-23T01:52:18.221Z,7.65
2022-10-23T01:54:48.527Z,10.45
2022-10-23T01:57:16.779Z,7.95
2022-10-23T01:59:45.202Z,8.65
2022-10-23T02:02:12.464Z,7.97
2022-10-23T02:04:53.613Z,12.75
2022-10-23T02:07:20.000Z,8.73
2022-10-23T02:09:46.936Z,10.45
2022-10-23T02:12:17.072Z,9.63
2022-10-23T02:15:03.602Z,4.55
2022-10-23T02:17:37.079Z,9.60
2022-10-23T02:22:36.089Z,12.82
2022-10-23T02:27:34.513Z,8.90
2022-10-23T02:30:11.560Z,6.53
2022-10-23T02:32:40.316Z,7.72
2022-10-23T02:35:07.547Z,6.55
2022-10-23T02:37:34.281Z,12.43
2022-10-23T02:40:03.955Z,5.95
2022-10-23T02:43:07.233Z,7.10
2022-10-23T02:48:28.034Z,8.43
2022-10-23T02:51:14.768Z,6.20
2022-10-23T02:53:50.554Z,8.90
2022-10-23T02:56:28.834Z,7.70
2022-10-23T02:59:14.228Z,10.88
2022-10-23T03:01:52.468Z,11.68
2022-10-23T03:04:24.358Z,6.85
2022-10-23T03:06:51.435Z,11.70
2022-10-23T03:09:18.376Z,6.35
2022-10-23T03:11:44.957Z,8.68
2022-10-23T03:14:13.293Z,8.63
2022-10-23T03:16:39.709Z,11.80
2022-10-23T03:19:06.134Z,5.25
2022-10-23T03:21:32.558Z,13.20
2022-10-23T03:23:58.963Z,6.93
2022-10-23T03:26:34.469Z,7.25
2022-10-23T03:29:00.968Z,6.00
2022-10-23T03:31:27.502Z,14.43
2022-10-23T03:33:57.562Z,7.00
2022-10-23T03:36:23.953Z,11.35
2022-10-23T03:38:50.693Z,9.48
2022-10-23T03:41:17.285Z,5.95
2022-10-23T03:43:43.679Z,5.53
2022-10-23T03:46:12.738Z,11.27
2022-10-23T03:48:39.166Z,8.55
2022-10-23T03:51:06.116Z,10.20
2022-10-23T03:53:32.552Z,5.75
2022-10-23T03:56:01.718Z,6.88
2022-10-23T03:58:28.362Z,9.38
2022-10-23T04:03:37.589Z,8.52
2022-10-23T04:06:04.144Z,4.03
2022-10-23T04:08:31.262Z,7.07
2022-10-23T04:10:57.694Z,8.13
2022-10-23T04:13:34.163Z,8.43
2022-10-23T04:16:01.017Z,10.50
2022-10-23T04:18:27.441Z,6.32
2022-10-23T04:20:54.122Z,9.00
2022-10-23T04:23:21.139Z,8.25
2022-10-23T04:28:14.813Z,7.90
2022-10-23T04:30:41.671Z,8.77
2022-10-23T04:33:10.351Z,7.57
2022-10-23T04:35:36.956Z,9.45
2022-10-23T04:38:03.362Z,7.82
2022-10-23T04:40:29.925Z,7.30
2022-10-23T04:42:56.405Z,7.55
2022-10-23T04:45:22.893Z,6.78
2022-10-23T04:47:49.371Z,4.32
2022-10-23T04:50:16.498Z,9.10
2022-10-23T04:53:01.480Z,6.93
2022-10-23T04:58:16.463Z,6.97
2022-10-23T05:00:44.078Z,3.78
2022-10-23T05:03:13.675Z,8.57
2022-10-23T05:05:41.608Z,7.00
2022-10-23T05:08:27.274Z,8.65
2022-10-23T05:11:21.122Z,8.95
2022-10-23T05:13:49.661Z,4.90
2022-10-23T05:16:39.340Z,3.00
2022-10-23T05:19:07.675Z,4.45
2022-10-23T05:21:35.463Z,6.50
2022-10-23T05:24:05.163Z,11.80
2022-10-23T05:26:31.931Z,9.35
2022-10-23T05:29:03.761Z,9.70
2022-10-23T05:31:30.197Z,8.43
2022-10-23T05:34:03.996Z,8.18
2022-10-23T05:36:30.778Z,4.72
2022-10-23T05:38:57.549Z,7.93
2022-10-23T05:41:23.932Z,8.50
2022-10-23T05:43:50.301Z,7.95
2022-10-23T05:46:43.079Z,5.40
2022-10-23T05:49:18.596Z,10.23
2022-10-23T05:52:12.986Z,7.28
2022-10-23T05:54:47.354Z,7.75
2022-10-23T05:57:21.032Z,7.40
2022-10-23T05:59:50.091Z,7.05
2022-10-23T06:02:19.173Z,6.47
2022-10-23T06:04:52.358Z,8.60
2022-10-23T06:07:37.189Z,7.07
2022-10-23T06:10:06.425Z,8.10
2022-10-23T06:12:36.081Z,6.80
2022-10-23T06:15:02.873Z,6.40
2022-10-23T06:17:49.235Z,9.88
2022-10-23T06:20:15.774Z,8.80
2022-10-23T06:22:44.155Z,4.53
2022-10-23T06:25:33.601Z,8.50
2022-10-23T06:28:04.872Z,4.43
2022-10-23T06:30:31.980Z,11.10
2022-10-23T06:33:02.058Z,3.35
2022-10-23T06:35:31.032Z,10.27
2022-10-23T06:37:57.660Z,6.22
2022-10-23T06:40:35.217Z,9.50
2022-10-23T06:43:05.479Z,13.73
2022-10-23T06:45:50.717Z,7.07
2022-10-23T06:48:17.112Z,8.02
2022-10-23T06:53:45.672Z,9.05
2022-10-23T06:56:32.280Z,8.30
2022-10-23T06:59:00.296Z,5.40
2022-10-23T07:01:27.310Z,6.05
2022-10-23T07:03:55.607Z,8.60
2022-10-23T07:06:25.804Z,6.22
2022-10-23T07:08:52.895Z,14.50
2022-10-23T07:11:39.833Z,8.30
2022-10-23T07:14:06.447Z,10.15
2022-10-23T07:16:33.199Z,14.23
2022-10-23T07:19:01.221Z,8.27
2022-10-23T07:21:28.881Z,9.40
2022-10-23T07:24:03.776Z,11.88
2022-10-23T07:26:33.187Z,14.07
2022-10-23T07:28:59.800Z,10.15
2022-10-23T07:31:28.312Z,11.13
2022-10-23T07:34:33.693Z,20.75
2022-10-23T07:37:24.399Z,17.65
2022-10-23T07:39:50.761Z,10.32
2022-10-23T07:42:17.152Z,9.13
2022-10-23T07:44:43.730Z,8.60
2022-10-23T07:47:10.501Z,10.10
2022-10-23T07:49:40.035Z,8.07
2022-10-23T07:52:06.751Z,10.75
2022-10-23T07:54:53.349Z,8.13
2022-10-23T07:57:20.720Z,4.80
2022-10-23T07:59:57.629Z,9.63
2022-10-23T08:02:24.780Z,8.70
2022-10-23T08:04:52.567Z,7.82
2022-10-23T08:07:40.676Z,5.07
2022-10-23T08:10:07.359Z,6.22
2022-10-23T08:12:37.404Z,6.72
2022-10-23T08:15:04.479Z,6.68
2022-10-23T08:17:40.159Z,8.68
2022-10-23T08:20:15.956Z,8.43
2022-10-23T08:22:44.378Z,5.55
2022-10-23T08:25:13.197Z,7.43
2022-10-23T08:27:39.844Z,9.98
2022-10-23T08:30:06.579Z,6.88
2022-10-23T08:32:33.082Z,6.28
2022-10-23T08:35:01.769Z,9.75
2022-10-23T08:37:30.697Z,6.93
2022-10-23T08:39:57.849Z,10.73
2022-10-23T08:42:51.496Z,13.27
2022-10-23T08:45:30.314Z,5.47
2022-10-23T08:48:13.189Z,6.95
2022-10-23T08:51:16.199Z,4.22
2022-10-23T08:53:54.523Z,4.05
2022-10-23T08:56:26.749Z,9.25
2022-10-23T08:58:55.498Z,8.60
2022-10-23T09:01:36.013Z,8.10
2022-10-23T09:04:03.081Z,8.65
2022-10-23T09:06:29.392Z,7.00
2022-10-23T09:09:10.913Z,4.93
2022-10-23T09:11:55.281Z,5.25
2022-10-23T09:14:27.688Z,9.57
2022-10-23T09:16:56.740Z,8.75
2022-10-23T09:19:27.963Z,10.60
2022-10-23T09:21:55.223Z,9.77
2022-10-23T09:24:23.426Z,6.43
2022-10-23T09:26:50.948Z,7.07
2022-10-23T09:29:27.970Z,5.95
2022-10-23T09:32:00.812Z,6.22
2022-10-23T09:34:28.379Z,5.40
2022-10-23T09:36:56.563Z,6.65
2022-10-23T09:39:24.543Z,7.65
2022-10-23T09:41:54.128Z,10.32
2022-10-23T09:44:27.869Z,5.78
2022-10-23T09:46:58.483Z,12.93
2022-10-23T09:49:24.820Z,6.10
2022-10-23T09:52:02.194Z,8.02
2022-10-23T09:54:39.777Z,9.32
2022-10-23T09:57:15.639Z,5.45
2022-10-23T09:59:42.357Z,8.38
2022-10-23T10:02:27.091Z,9.50
2022-10-23T10:05:21.103Z,9.40
2022-10-23T10:07:55.234Z,9.38
2022-10-23T10:10:21.850Z,7.05
2022-10-23T10:12:59.164Z,10.35
2022-10-23T10:15:34.693Z,9.02
2022-10-23T10:18:26.455Z,7.55
2022-10-23T10:21:09.018Z,6.30
2022-10-23T10:23:42.998Z,8.95
2022-10-23T10:28:58.957Z,7.43
2022-10-23T10:31:50.564Z,5.47
2022-10-23T10:34:19.295Z,9.55
2022-10-23T10:36:45.595Z,9.02
2022-10-23T10:39:21.589Z,8.25
2022-10-23T10:42:06.668Z,7.03
2022-10-23T10:44:48.374Z,8.02
2022-10-23T10:47:17.164Z,9.63
2022-10-23T10:49:55.744Z,6.78
2022-10-23T10:52:33.237Z,6.35
2022-10-23T10:54:59.570Z,7.53
2022-10-23T10:57:38.083Z,4.30
2022-10-23T11:00:06.484Z,5.88
2022-10-23T11:02:41.407Z,3.15
2022-10-23T11:05:13.942Z,2.63
2022-10-23T11:07:52.019Z,5.47
2022-10-23T11:10:19.247Z,3.40
2022-10-23T11:12:46.660Z,2.30
2022-10-23T11:15:17.644Z,2.75
2022-10-23T11:18:04.278Z,3.00
2022-10-23T11:20:39.863Z,1.92
2022-10-23T11:23:26.136Z,3.72
2022-10-23T11:26:10.416Z,3.75
2022-10-23T11:28:48.906Z,3.92
2022-10-23T11:31:21.939Z,2.30
2022-10-23T11:33:57.588Z,1.65
2022-10-23T11:36:42.351Z,2.42
2022-10-23T11:39:17.472Z,2.70
2022-10-23T11:41:54.800Z,3.17
2022-10-23T11:44:27.457Z,2.20
2022-10-23T11:47:01.040Z,2.38
2022-10-23T11:49:27.393Z,3.75
2022-10-23T11:52:00.937Z,3.45
2022-10-23T11:54:27.434Z,2.95
2022-10-23T11:57:03.201Z,5.97
2022-10-23T11:59:45.159Z,4.03
2022-10-23T12:02:31.939Z,5.38
2022-10-23T12:05:01.633Z,4.22
2022-10-23T12:07:29.839Z,4.47
2022-10-23T12:10:00.524Z,1.15
2022-10-23T12:12:41.787Z,3.03
2022-10-23T12:15:11.190Z,3.97
2022-10-23T12:17:42.045Z,3.45
2022-10-23T12:20:08.564Z,3.25
2022-10-23T12:22:53.779Z,4.65
2022-10-23T12:25:25.966Z,4.22
2022-10-23T12:28:10.992Z,2.90
2022-10-23T12:30:40.530Z,4.53
2022-10-23T12:33:18.146Z,4.47
2022-10-23T12:36:02.738Z,4.80
2022-10-23T12:38:33.850Z,6.18
2022-10-23T12:41:09.639Z,3.40
2022-10-23T12:46:17.906Z,8.27
2022-10-23T12:48:49.125Z,5.13
2022-10-23T12:51:23.532Z,3.78
2022-10-23T12:53:50.372Z,6.25
2022-10-23T12:56:17.114Z,6.63
2022-10-23T12:58:51.224Z,4.28
2022-10-23T13:01:28.187Z,7.00
2022-10-23T13:03:59.354Z,6.57
2022-10-23T13:06:26.410Z,5.90
2022-10-23T13:08:52.842Z,4.78
2022-10-23T13:11:42.369Z,7.65
2022-10-23T13:14:13.556Z,6.97
2022-10-23T13:16:39.966Z,9.07
2022-10-23T13:19:06.291Z,6.72
2022-10-23T13:21:32.906Z,4.85
2022-10-23T13:23:59.492Z,6.65
2022-10-23T13:26:30.659Z,4.72
2022-10-23T13:28:57.495Z,4.43
2022-10-23T13:31:25.276Z,5.60
2022-10-23T13:34:04.165Z,7.28
2022-10-23T13:36:31.872Z,9.68
2022-10-23T13:39:09.037Z,5.88
2022-10-23T13:41:37.065Z,6.72
2022-10-23T13:44:03.656Z,7.50
2022-10-23T13:46:30.112Z,13.15
2022-10-23T13:48:56.467Z,7.22
2022-10-23T13:51:24.172Z,5.50
2022-10-23T13:53:52.056Z,9.93
2022-10-23T13:56:19.524Z,5.03
2022-10-23T13:58:46.209Z,6.35
2022-10-23T14:01:19.623Z,9.27
2022-10-23T14:03:47.013Z,3.17
2022-10-23T14:06:13.497Z,4.10
2022-10-23T14:08:39.878Z,6.07
2022-10-23T14:11:06.575Z,5.63
2022-10-23T14:13:33.045Z,6.63
2022-10-23T14:15:59.424Z,8.98
2022-10-23T14:18:25.862Z,5.80
2022-10-23T14:20:52.322Z,4.78
2022-10-23T14:23:18.656Z,6.60
2022-10-23T14:25:45.044Z,5.97
2022-10-23T14:28:11.464Z,8.38
2022-10-23T14:30:37.909Z,7.10
2022-10-23T14:33:04.372Z,7.35
2022-10-23T14:35:30.762Z,4.20
2022-10-23T14:37:58.498Z,7.25
2022-10-23T14:40:25.401Z,7.88
2022-10-23T14:42:51.882Z,7.93
2022-10-23T14:45:18.236Z,6.43
2022-10-23T14:47:44.928Z,5.55
2022-10-23T14:50:11.854Z,10.40
2022-10-23T14:52:38.219Z,7.82
2022-10-23T14:55:04.833Z,9.52
2022-10-23T14:57:31.196Z,11.48
2022-10-23T14:59:57.532Z,7.00
2022-10-23T15:02:23.982Z,7.35
2022-10-23T15:04:50.404Z,8.68
2022-10-23T15:07:16.760Z,10.85
2022-10-23T15:09:43.096Z,7.20
2022-10-23T15:12:09.464Z,9.25
2022-10-23T15:14:35.889Z,6.97
2022-10-23T15:17:02.897Z,5.45
2022-10-23T15:19:29.312Z,4.45
2022-10-23T15:21:55.779Z,5.70
2022-10-23T15:24:22.184Z,4.75
2022-10-23T15:26:49.833Z,5.20
2022-10-23T15:29:16.346Z,3.70
2022-10-23T15:31:52.463Z,4.10
2022-10-23T15:34:19.737Z,4.45
2022-10-23T15:36:47.100Z,4.03
2022-10-23T15:39:15.428Z,5.82
2022-10-23T15:41:43.048Z,2.45
2022-10-23T15:44:11.818Z,3.35
2022-10-23T15:46:38.253Z,5.68
2022-10-23T15:49:04.711Z,6.80
2022-10-23T15:51:31.320Z,8.05
2022-10-23T15:53:57.890Z,6.82
2022-10-23T15:56:24.584Z,4.93
2022-10-23T15:58:50.985Z,4.38
2022-10-23T16:01:17.575Z,3.75
2022-10-23T16:03:44.724Z,4.93
2022-10-23T16:06:12.072Z,10.55
2022-10-23T16:08:38.895Z,4.45
2022-10-23T16:11:11.858Z,5.20
2022-10-23T16:13:38.242Z,4.95
2022-10-23T16:16:04.742Z,7.28
2022-10-23T16:18:31.179Z,6.97
2022-10-23T16:20:57.555Z,8.95
2022-10-23T16:23:23.976Z,7.13
2022-10-23T16:25:51.074Z,8.98
2022-10-23T16:28:17.533Z,7.90
2022-10-23T16:30:44.169Z,11.50
2022-10-23T16:33:10.606Z,5.82
2022-10-23T16:35:37.251Z,7.60
2022-10-23T16:38:11.876Z,7.88
2022-10-23T16:40:38.283Z,5.53
2022-10-23T16:43:23.339Z,7.22
2022-10-23T16:46:15.177Z,6.65
2022-10-23T16:48:41.721Z,7.18
2022-10-23T16:51:12.145Z,10.80
2022-10-23T16:53:38.997Z,9.20
2022-10-23T16:56:06.140Z,7.40
2022-10-23T16:58:33.100Z,14.10
2022-10-23T17:01:00.814Z,12.38
2022-10-23T17:03:27.642Z,9.55
2022-10-23T17:05:56.409Z,10.88
2022-10-23T17:08:24.846Z,12.48
2022-10-23T17:11:02.305Z,15.38
2022-10-23T17:13:28.689Z,17.67
2022-10-23T17:16:03.013Z,9.65
2022-10-23T17:18:29.452Z,11.88
2022-10-23T17:20:56.391Z,18.98
2022-10-23T17:23:22.768Z,19.77
2022-10-23T17:25:49.504Z,21.85
2022-10-23T17:28:15.951Z,15.15
2022-10-23T17:30:42.382Z,15.32
2022-10-23T17:33:08.846Z,13.63
2022-10-23T17:35:35.183Z,13.63
2022-10-23T17:38:01.730Z,13.13
2022-10-23T17:40:30.881Z,10.00
2022-10-23T17:42:57.412Z,15.65
2022-10-23T17:45:23.782Z,11.20
2022-10-23T17:47:50.159Z,9.68
2022-10-23T17:50:16.519Z,12.43
2022-10-23T17:52:43.282Z,9.77
2022-10-23T17:55:09.917Z,10.23
2022-10-23T17:57:36.353Z,13.95
2022-10-23T18:00:04.265Z,9.27
2022-10-23T18:02:38.979Z,8.55
2022-10-23T18:05:05.681Z,12.40
2022-10-23T18:07:32.048Z,13.18
2022-10-23T18:09:58.383Z,10.93
2022-10-23T18:12:24.903Z,19.83
2022-10-23T18:14:51.680Z,14.80
2022-10-23T18:17:18.154Z,17.25
2022-10-23T18:19:44.555Z,9.98
2022-10-23T18:22:11.131Z,14.23
2022-10-23T18:24:38.190Z,15.57
2022-10-23T18:27:04.569Z,12.40
2022-10-23T18:29:31.172Z,12.05
2022-10-23T18:31:57.572Z,13.90
2022-10-23T18:34:24.643Z,12.07
2022-10-23T18:36:52.258Z,15.88
2022-10-23T18:39:22.204Z,11.10
2022-10-23T18:41:50.047Z,18.40
2022-10-23T18:44:17.499Z,15.75
2022-10-23T18:46:45.813Z,16.02
2022-10-23T18:49:12.524Z,15.23
2022-10-23T18:51:39.439Z,10.98
2022-10-23T18:54:08.016Z,15.88
2022-10-23T18:56:35.935Z,13.45
2022-10-23T18:59:04.236Z,14.02
2022-10-23T19:01:30.972Z,11.23
2022-10-23T19:03:58.813Z,10.80
2022-10-23T19:06:25.233Z,12.40
2022-10-23T19:08:52.073Z,13.27
2022-10-23T19:11:19.786Z,10.25
2022-10-23T19:13:46.237Z,9.43
2022-10-23T19:16:14.604Z,11.48
2022-10-23T19:18:42.063Z,14.07
2022-10-23T19:21:09.032Z,12.40
2022-10-23T19:23:36.441Z,15.63
2022-10-23T19:26:11.904Z,15.70
2022-10-23T19:28:40.328Z,13.60
2022-10-23T19:31:07.824Z,13.82
2022-10-23T19:33:36.037Z,11.57
2022-10-23T19:36:05.513Z,10.55
2022-10-23T19:38:32.791Z,15.45
2022-10-23T19:40:59.161Z,11.80
2022-10-23T19:43:25.599Z,12.00
2022-10-23T19:45:51.941Z,8.55
2022-10-23T19:48:18.297Z,11.07
2022-10-23T19:50:44.797Z,11.05
2022-10-23T19:53:11.200Z,12.43
2022-10-23T19:55:37.522Z,9.27
2022-10-23T19:58:03.889Z,7.90
2022-10-23T20:00:30.422Z,8.35
2022-10-23T20:02:56.835Z,10.23
2022-10-23T20:05:23.203Z,9.00
2022-10-23T20:07:50.733Z,10.32
2022-10-23T20:10:17.159Z,10.98
2022-10-23T20:12:47.475Z,10.75
2022-10-23T20:15:23.559Z,8.38
2022-10-23T20:17:50.507Z,11.45
2022-10-23T20:20:17.308Z,6.53
2022-10-23T20:22:44.220Z,13.00
2022-10-23T20:25:10.781Z,7.90
2022-10-23T20:30:03.899Z,11.13
2022-10-23T20:32:30.556Z,13.95
2022-10-23T20:34:56.935Z,11.85
2022-10-23T20:37:23.293Z,12.20
2022-10-23T20:39:49.723Z,11.68
2022-10-23T20:42:16.210Z,10.52
2022-10-23T20:44:42.573Z,12.57
2022-10-23T20:47:08.934Z,14.70
2022-10-23T20:49:35.438Z,7.85
2022-10-23T20:52:02.952Z,12.85
2022-10-23T20:54:29.379Z,8.65
2022-10-23T20:56:57.066Z,10.30
2022-10-23T20:59:23.735Z,10.57
2022-10-23T21:01:51.377Z,13.15
2022-10-23T21:04:19.328Z,13.93
2022-10-23T21:07:04.743Z,12.93
2022-10-23T21:09:32.335Z,11.05
2022-10-23T21:11:58.761Z,9.52
2022-10-23T21:14:25.199Z,15.10
2022-10-23T21:16:51.677Z,11.13
2022-10-23T21:19:18.222Z,9.70
2022-10-23T21:21:44.554Z,12.82
2022-10-23T21:24:14.016Z,14.45
2022-10-23T21:26:40.403Z,11.95
2022-10-23T21:29:17.891Z,9.57
2022-10-23T21:31:45.626Z,14.38
2022-10-23T21:34:12.106Z,10.88
2022-10-23T21:36:48.572Z,12.25
2022-10-23T21:39:25.262Z,13.80
2022-10-23T21:41:51.750Z,10.52
2022-10-23T21:44:18.129Z,12.10
2022-10-23T21:46:44.868Z,5.50
2022-10-23T21:49:11.763Z,14.15
2022-10-23T21:51:38.382Z,12.82
2022-10-23T21:54:10.954Z,11.48
2022-10-23T21:56:42.451Z,14.80
2022-10-23T21:59:12.946Z,16.10
2022-10-23T22:01:39.800Z,18.75
2022-10-23T22:04:06.315Z,14.13
2022-10-23T22:06:32.972Z,15.05
2022-10-23T22:09:01.026Z,18.52
2022-10-23T22:11:27.705Z,16.98
2022-10-23T22:13:54.554Z,18.05
2022-10-23T22:16:21.265Z,21.73
2022-10-23T22:18:48.070Z,12.40
2022-10-23T22:21:18.945Z,16.25
2022-10-23T22:23:45.520Z,19.77
2022-10-23T22:26:22.905Z,16.48
2022-10-23T22:28:50.028Z,19.27
2022-10-23T22:31:18.107Z,20.00
2022-10-23T22:33:44.885Z,15.07
2022-10-23T22:36:11.820Z,16.25
2022-10-23T22:38:39.218Z,21.08
2022-10-23T22:41:05.946Z,14.45
2022-10-23T22:43:32.521Z,9.70
2022-10-23T22:46:06.556Z,15.55
2022-10-23T22:48:33.233Z,12.75
2022-10-23T22:50:59.686Z,15.30
2022-10-23T22:53:26.117Z,13.82
2022-10-23T22:55:53.340Z,15.57
2022-10-23T22:58:20.258Z,17.05
2022-10-23T23:00:46.800Z,22.08
2022-10-23T23:03:13.736Z,15.88
2022-10-23T23:05:47.769Z,17.17
2022-10-23T23:08:14.490Z,16.20
2022-10-23T23:10:41.260Z,16.98
2022-10-23T23:13:07.656Z,15.43
2022-10-23T23:15:38.592Z,16.02
2022-10-23T23:18:05.129Z,17.95
2022-10-23T23:20:31.514Z,18.35
2022-10-23T23:22:57.843Z,21.05
2022-10-23T23:25:24.227Z,29.83
2022-10-23T23:27:50.663Z,16.60
2022-10-23T23:30:17.050Z,19.02
2022-10-23T23:32:43.846Z,16.15
2022-10-23T23:35:10.467Z,14.10
2022-10-23T23:37:36.973Z,17.88
2022-10-23T23:40:03.671Z,17.83
2022-10-23T23:42:30.551Z,16.38
2022-10-23T23:45:02.839Z,22.50
2022-10-23T23:47:36.672Z,14.70
2022-10-23T23:50:03.627Z,17.10
2022-10-23T23:52:29.950Z,19.88
2022-10-23T23:54:56.462Z,16.52
2022-10-23T23:57:22.841Z,15.88
2022-10-23T23:59:49.167Z,15.07
